EXS195 EGLL-LERS
Flight info
| Callsign | EXS195 |
|---|---|
| Flight time | 1h 24m |
| Altitude | 33000 |
| Route | MODMI M185 MID DCT GWC DCT ANG DCT POSSY |
| Aircraft | B738/M-SDE2E3FGHIRWXY/LB1 |
Departure
| Time | 2026-04-22 17:24 |
|---|---|
| Airport | London Heathrow Airport (EGLL) |
Arrival
| Time | 2026-04-22 18:48 |
|---|---|
| Airport | Reus Airport (LERS) |
| Time | Latitude | Longitude | Altitude | Speed | Heading |
|---|---|---|---|---|---|
| 2026-04-22 16:56 | 51.46827 | -0.45608 | 86 ft | 0 kts | 360° |
| 2026-04-22 17:11 | 51.46822 | -0.45608 | 86 ft | 2 kts | 360° |
| 2026-04-22 17:11 | 51.46805 | -0.45608 | 89 ft | 2 kts | 360° |
| 2026-04-22 17:12 | 51.46789 | -0.45608 | 89 ft | 2 kts | 360° |
| 2026-04-22 17:12 | 51.46780 | -0.45608 | 89 ft | 1 kts | 359° |
| 2026-04-22 17:12 | 51.46766 | -0.45607 | 89 ft | 2 kts | 326° |
| 2026-04-22 17:12 | 51.46757 | -0.45594 | 88 ft | 2 kts | 301° |
| 2026-04-22 17:13 | 51.46752 | -0.45578 | 90 ft | 1 kts | 278° |
| 2026-04-22 17:13 | 51.46751 | -0.45566 | 88 ft | 1 kts | 271° |
| 2026-04-22 17:13 | 51.46751 | -0.45563 | 88 ft | 0 kts | 270° |
| 2026-04-22 17:15 | 51.46751 | -0.45582 | 86 ft | 7 kts | 269° |
| 2026-04-22 17:15 | 51.46749 | -0.45732 | 86 ft | 17 kts | 270° |
| 2026-04-22 17:16 | 51.46749 | -0.45923 | 86 ft | 17 kts | 270° |
| 2026-04-22 17:16 | 51.46747 | -0.46109 | 90 ft | 16 kts | 270° |
| 2026-04-22 17:16 | 51.46747 | -0.46288 | 90 ft | 16 kts | 270° |
| 2026-04-22 17:16 | 51.46748 | -0.46460 | 86 ft | 15 kts | 271° |
| 2026-04-22 17:17 | 51.46747 | -0.46619 | 90 ft | 14 kts | 269° |
| 2026-04-22 17:17 | 51.46746 | -0.46770 | 88 ft | 13 kts | 269° |
| 2026-04-22 17:17 | 51.46746 | -0.46915 | 90 ft | 13 kts | 270° |
| 2026-04-22 17:17 | 51.46746 | -0.47056 | 89 ft | 12 kts | 270° |
| 2026-04-22 17:18 | 51.46746 | -0.47199 | 90 ft | 14 kts | 270° |
| 2026-04-22 17:18 | 51.46746 | -0.47366 | 90 ft | 16 kts | 269° |
| 2026-04-22 17:18 | 51.46744 | -0.47548 | 86 ft | 15 kts | 270° |
| 2026-04-22 17:18 | 51.46744 | -0.47709 | 86 ft | 14 kts | 270° |
| 2026-04-22 17:19 | 51.46742 | -0.47977 | 86 ft | 10 kts | 270° |
| 2026-04-22 17:19 | 51.46742 | -0.48140 | 86 ft | 6 kts | 270° |
| 2026-04-22 17:20 | 51.46677 | -0.48217 | 86 ft | 7 kts | 179° |
| 2026-04-22 17:20 | 51.46599 | -0.48215 | 86 ft | 1 kts | 179° |
| 2026-04-22 17:22 | 51.46597 | -0.48215 | 86 ft | 3 kts | 179° |
| 2026-04-22 17:22 | 51.46483 | -0.48185 | 90 ft | 1 kts | 117° |
| 2026-04-22 17:23 | 51.46479 | -0.48159 | 88 ft | 4 kts | 96° |
| 2026-04-22 17:23 | 51.46479 | -0.48131 | 87 ft | 10 kts | 88° |
| 2026-04-22 17:23 | 51.46480 | -0.47584 | 84 ft | 90 kts | 90° |
| 2026-04-22 17:24 | 51.46481 | -0.46179 | 149 ft | 154 kts | 91° |
| 2026-04-22 17:24 | 51.46466 | -0.44313 | 783 ft | 180 kts | 91° |
| 2026-04-22 17:24 | 51.46381 | -0.42275 | 1726 ft | 186 kts | 90° |
| 2026-04-22 17:24 | 51.46223 | -0.40198 | 2125 ft | 189 kts | 112° |
| 2026-04-22 17:25 | 51.45487 | -0.38460 | 2617 ft | 188 kts | 124° |
| 2026-04-22 17:25 | 51.44365 | -0.37325 | 3069 ft | 200 kts | 159° |
| 2026-04-22 17:25 | 51.43026 | -0.36662 | 3567 ft | 201 kts | 154° |
| 2026-04-22 17:25 | 51.41707 | -0.35845 | 4030 ft | 209 kts | 155° |
| 2026-04-22 17:26 | 51.40195 | -0.35754 | 4483 ft | 235 kts | 188° |
| 2026-04-22 17:26 | 51.38565 | -0.36643 | 4935 ft | 257 kts | 199° |
| 2026-04-22 17:26 | 51.36926 | -0.37906 | 5404 ft | 267 kts | 201° |
| 2026-04-22 17:26 | 51.35245 | -0.39235 | 5862 ft | 271 kts | 201° |
| 2026-04-22 17:27 | 51.34092 | -0.40134 | 6186 ft | 272 kts | 201° |
| 2026-04-22 17:27 | 51.31837 | -0.41879 | 6817 ft | 273 kts | 201° |
| 2026-04-22 17:27 | 51.30131 | -0.43220 | 7250 ft | 274 kts | 202° |
| 2026-04-22 17:27 | 51.28437 | -0.44557 | 7679 ft | 274 kts | 201° |
| 2026-04-22 17:28 | 51.26722 | -0.45917 | 8128 ft | 275 kts | 202° |
| 2026-04-22 17:28 | 51.25007 | -0.47297 | 8580 ft | 277 kts | 202° |
| 2026-04-22 17:28 | 51.23277 | -0.48686 | 9041 ft | 279 kts | 202° |
| 2026-04-22 17:28 | 51.21493 | -0.49902 | 9500 ft | 278 kts | 189° |
| 2026-04-22 17:29 | 51.19587 | -0.50367 | 9992 ft | 277 kts | 182° |
| 2026-04-22 17:29 | 51.17665 | -0.50665 | 10457 ft | 278 kts | 181° |
| 2026-04-22 17:29 | 51.15721 | -0.50935 | 10894 ft | 284 kts | 181° |
| 2026-04-22 17:29 | 51.13739 | -0.51200 | 11346 ft | 286 kts | 181° |
| 2026-04-22 17:30 | 51.11756 | -0.51456 | 11787 ft | 286 kts | 181° |
| 2026-04-22 17:30 | 51.09768 | -0.51746 | 12233 ft | 288 kts | 187° |
| 2026-04-22 17:30 | 51.07898 | -0.52960 | 12688 ft | 296 kts | 210° |
| 2026-04-22 17:30 | 51.06244 | -0.54948 | 13200 ft | 301 kts | 216° |
| 2026-04-22 17:31 | 51.04605 | -0.57065 | 13679 ft | 306 kts | 217° |
| 2026-04-22 17:31 | 51.02944 | -0.59227 | 14153 ft | 311 kts | 217° |
| 2026-04-22 17:31 | 51.01263 | -0.61403 | 14583 ft | 312 kts | 217° |
| 2026-04-22 17:31 | 50.99586 | -0.63541 | 15007 ft | 314 kts | 214° |
| 2026-04-22 17:32 | 50.97604 | -0.64872 | 15408 ft | 310 kts | 184° |
| 2026-04-22 17:32 | 50.95505 | -0.64450 | 15860 ft | 305 kts | 154° |
| 2026-04-22 17:32 | 50.93699 | -0.62712 | 16363 ft | 306 kts | 145° |
| 2026-04-22 17:32 | 50.91890 | -0.60826 | 16816 ft | 316 kts | 146° |
| 2026-04-22 17:33 | 50.90621 | -0.59575 | 17141 ft | 321 kts | 148° |
| 2026-04-22 17:33 | 50.88018 | -0.57203 | 17773 ft | 329 kts | 150° |
| 2026-04-22 17:33 | 50.85986 | -0.55494 | 18250 ft | 333 kts | 152° |
| 2026-04-22 17:33 | 50.83909 | -0.53828 | 18681 ft | 338 kts | 153° |
| 2026-04-22 17:34 | 50.81733 | -0.52143 | 18799 ft | 358 kts | 154° |
| 2026-04-22 17:34 | 50.79435 | -0.50406 | 18974 ft | 374 kts | 154° |
| 2026-04-22 17:34 | 50.77030 | -0.48613 | 19129 ft | 390 kts | 155° |
| 2026-04-22 17:34 | 50.74555 | -0.46781 | 19646 ft | 392 kts | 155° |
| 2026-04-22 17:35 | 50.72915 | -0.45573 | 20020 ft | 395 kts | 155° |
| 2026-04-22 17:35 | 50.70385 | -0.43714 | 20343 ft | 405 kts | 155° |
| 2026-04-22 17:35 | 50.67802 | -0.41822 | 20598 ft | 416 kts | 155° |
| 2026-04-22 17:35 | 50.65143 | -0.39876 | 20896 ft | 425 kts | 155° |
| 2026-04-22 17:36 | 50.62445 | -0.37903 | 21352 ft | 429 kts | 155° |
| 2026-04-22 17:36 | 50.59734 | -0.35922 | 21853 ft | 432 kts | 156° |
| 2026-04-22 17:36 | 50.56991 | -0.33920 | 22260 ft | 437 kts | 156° |
| 2026-04-22 17:36 | 50.54219 | -0.31900 | 22700 ft | 441 kts | 156° |
| 2026-04-22 17:37 | 50.51431 | -0.29871 | 23185 ft | 443 kts | 156° |
| 2026-04-22 17:37 | 50.48620 | -0.27826 | 23622 ft | 447 kts | 156° |
| 2026-04-22 17:37 | 50.45785 | -0.25768 | 23998 ft | 451 kts | 156° |
| 2026-04-22 17:37 | 50.42960 | -0.23719 | 24344 ft | 454 kts | 156° |
| 2026-04-22 17:38 | 50.40086 | -0.21638 | 24761 ft | 456 kts | 156° |
| 2026-04-22 17:38 | 50.37203 | -0.19553 | 25154 ft | 458 kts | 156° |
| 2026-04-22 17:38 | 50.34301 | -0.17457 | 25517 ft | 460 kts | 156° |
| 2026-04-22 17:38 | 50.31389 | -0.15355 | 25858 ft | 463 kts | 156° |
| 2026-04-22 17:39 | 50.28458 | -0.13244 | 26219 ft | 465 kts | 156° |
| 2026-04-22 17:39 | 50.25507 | -0.11120 | 26567 ft | 467 kts | 157° |
| 2026-04-22 17:39 | 50.19561 | -0.06846 | 27235 ft | 472 kts | 157° |
| 2026-04-22 17:40 | 50.16568 | -0.04701 | 27568 ft | 474 kts | 157° |
| 2026-04-22 17:40 | 50.13538 | -0.02638 | 27887 ft | 475 kts | 163° |
| 2026-04-22 17:40 | 50.10373 | -0.01431 | 28180 ft | 473 kts | 176° |
| 2026-04-22 17:40 | 50.07100 | -0.01189 | 28497 ft | 470 kts | 187° |
| 2026-04-22 17:41 | 50.03882 | -0.01898 | 28825 ft | 466 kts | 197° |
| 2026-04-22 17:41 | 50.00687 | -0.03048 | 29164 ft | 466 kts | 197° |
| 2026-04-22 17:41 | 49.97531 | -0.04219 | 29502 ft | 467 kts | 198° |
| 2026-04-22 17:41 | 49.94400 | -0.05377 | 29950 ft | 465 kts | 197° |
| 2026-04-22 17:42 | 49.91251 | -0.06520 | 30424 ft | 462 kts | 197° |
| 2026-04-22 17:42 | 49.88123 | -0.07636 | 30789 ft | 461 kts | 197° |
| 2026-04-22 17:42 | 49.84991 | -0.08737 | 31092 ft | 461 kts | 197° |
| 2026-04-22 17:42 | 49.81859 | -0.09828 | 31382 ft | 461 kts | 197° |
| 2026-04-22 17:43 | 49.78725 | -0.10912 | 31715 ft | 460 kts | 197° |
| 2026-04-22 17:43 | 49.75601 | -0.11990 | 32063 ft | 459 kts | 197° |
| 2026-04-22 17:43 | 49.72485 | -0.13062 | 32390 ft | 459 kts | 197° |
| 2026-04-22 17:43 | 49.69374 | -0.14132 | 32692 ft | 458 kts | 197° |
| 2026-04-22 17:44 | 49.66258 | -0.15203 | 33012 ft | 457 kts | 197° |
| 2026-04-22 17:44 | 49.63190 | -0.16257 | 33236 ft | 458 kts | 197° |
| 2026-04-22 17:44 | 49.60060 | -0.17334 | 33209 ft | 462 kts | 197° |
| 2026-04-22 17:45 | 49.53799 | -0.19480 | 33198 ft | 459 kts | 197° |
| 2026-04-22 17:45 | 49.47621 | -0.21585 | 33204 ft | 453 kts | 197° |
| 2026-04-22 17:46 | 49.41459 | -0.23686 | 33206 ft | 453 kts | 197° |
| 2026-04-22 17:46 | 49.35297 | -0.25783 | 33191 ft | 453 kts | 197° |
| 2026-04-22 17:47 | 49.29135 | -0.27873 | 33186 ft | 453 kts | 197° |
| 2026-04-22 17:47 | 49.22974 | -0.29957 | 33185 ft | 454 kts | 197° |
| 2026-04-22 17:48 | 49.16809 | -0.32037 | 33188 ft | 454 kts | 197° |
| 2026-04-22 17:48 | 49.10638 | -0.34113 | 33180 ft | 454 kts | 197° |
| 2026-04-22 17:49 | 49.04506 | -0.36170 | 33163 ft | 453 kts | 197° |
| 2026-04-22 17:49 | 48.98351 | -0.38230 | 33177 ft | 453 kts | 197° |
| 2026-04-22 17:50 | 48.92186 | -0.40289 | 33175 ft | 453 kts | 197° |
| 2026-04-22 17:50 | 48.86027 | -0.42341 | 33173 ft | 453 kts | 197° |
| 2026-04-22 17:51 | 48.79864 | -0.44389 | 33164 ft | 453 kts | 197° |
| 2026-04-22 17:51 | 48.73750 | -0.46415 | 33156 ft | 453 kts | 197° |
| 2026-04-22 17:52 | 48.67597 | -0.48449 | 33158 ft | 452 kts | 197° |
| 2026-04-22 17:52 | 48.61448 | -0.50476 | 33152 ft | 452 kts | 197° |
| 2026-04-22 17:53 | 48.55313 | -0.52495 | 33146 ft | 451 kts | 196° |
| 2026-04-22 17:53 | 48.49184 | -0.54506 | 33145 ft | 450 kts | 197° |
| 2026-04-22 17:54 | 48.43070 | -0.56507 | 33146 ft | 449 kts | 197° |
| 2026-04-22 17:54 | 48.36957 | -0.58503 | 33135 ft | 449 kts | 196° |
| 2026-04-22 17:55 | 48.31884 | -0.60155 | 33137 ft | 448 kts | 197° |
| 2026-04-22 17:55 | 48.24798 | -0.62459 | 33133 ft | 448 kts | 197° |
| 2026-04-22 17:56 | 48.18703 | -0.64434 | 33126 ft | 447 kts | 197° |
| 2026-04-22 17:56 | 48.12620 | -0.66401 | 33127 ft | 447 kts | 197° |
| 2026-04-22 17:57 | 48.06535 | -0.68364 | 33131 ft | 447 kts | 196° |
| 2026-04-22 17:57 | 48.00467 | -0.70316 | 33131 ft | 446 kts | 197° |
| 2026-04-22 17:58 | 47.94387 | -0.72268 | 33127 ft | 446 kts | 196° |
| 2026-04-22 17:58 | 47.88321 | -0.74210 | 33123 ft | 445 kts | 196° |
| 2026-04-22 17:59 | 47.82304 | -0.76131 | 33123 ft | 445 kts | 196° |
| 2026-04-22 17:59 | 47.76250 | -0.78060 | 33114 ft | 444 kts | 196° |
| 2026-04-22 18:00 | 47.71224 | -0.79658 | 33105 ft | 444 kts | 196° |
| 2026-04-22 18:00 | 47.64163 | -0.81896 | 33102 ft | 443 kts | 196° |
| 2026-04-22 18:01 | 47.58127 | -0.83806 | 33099 ft | 443 kts | 196° |
| 2026-04-22 18:01 | 47.51981 | -0.84898 | 33094 ft | 450 kts | 182° |
| 2026-04-22 18:02 | 47.45729 | -0.83788 | 33087 ft | 453 kts | 175° |
| 2026-04-22 18:02 | 47.39483 | -0.82421 | 33086 ft | 454 kts | 175° |
| 2026-04-22 18:03 | 47.32499 | -0.80941 | 33088 ft | 454 kts | 176° |
| 2026-04-22 18:03 | 47.19980 | -0.78409 | 33071 ft | 454 kts | 176° |
| 2026-04-22 18:04 | 47.07445 | -0.75906 | 33072 ft | 455 kts | 176° |
| 2026-04-22 18:04 | 46.94887 | -0.73406 | 33073 ft | 456 kts | 176° |
| 2026-04-22 18:05 | 46.82303 | -0.70913 | 33053 ft | 456 kts | 176° |
| 2026-04-22 18:05 | 46.69683 | -0.68424 | 33052 ft | 457 kts | 176° |
| 2026-04-22 18:06 | 46.57066 | -0.65947 | 33038 ft | 457 kts | 177° |
| 2026-04-22 18:06 | 46.44528 | -0.63498 | 33040 ft | 458 kts | 177° |
| 2026-04-22 18:07 | 46.33940 | -0.61438 | 33034 ft | 458 kts | 177° |
| 2026-04-22 18:07 | 46.19232 | -0.58590 | 33026 ft | 459 kts | 177° |
| 2026-04-22 18:08 | 46.06555 | -0.56148 | 33017 ft | 460 kts | 177° |
| 2026-04-22 18:08 | 45.93865 | -0.53715 | 33019 ft | 460 kts | 177° |
| 2026-04-22 18:09 | 45.81138 | -0.51285 | 33012 ft | 461 kts | 177° |
| 2026-04-22 18:09 | 45.68398 | -0.48865 | 33016 ft | 462 kts | 177° |
| 2026-04-22 18:10 | 45.55726 | -0.46468 | 33014 ft | 462 kts | 177° |
| 2026-04-22 18:10 | 45.42968 | -0.44066 | 33008 ft | 462 kts | 177° |
| 2026-04-22 18:11 | 45.30197 | -0.41673 | 33010 ft | 463 kts | 177° |
| 2026-04-22 18:11 | 45.17405 | -0.39286 | 33005 ft | 463 kts | 177° |
| 2026-04-22 18:12 | 45.04617 | -0.36911 | 33014 ft | 463 kts | 176° |
| 2026-04-22 18:12 | 44.93998 | -0.34946 | 33024 ft | 463 kts | 176° |
| 2026-04-22 18:13 | 44.79145 | -0.32212 | 33023 ft | 462 kts | 176° |
| 2026-04-22 18:13 | 44.66392 | -0.29875 | 33027 ft | 462 kts | 176° |
| 2026-04-22 18:14 | 44.53635 | -0.27548 | 33019 ft | 462 kts | 176° |
| 2026-04-22 18:14 | 44.40878 | -0.25231 | 33027 ft | 462 kts | 176° |
| 2026-04-22 18:15 | 44.28135 | -0.22926 | 33035 ft | 461 kts | 176° |
| 2026-04-22 18:15 | 44.15409 | -0.20635 | 33042 ft | 460 kts | 176° |
| 2026-04-22 18:16 | 44.02787 | -0.18372 | 33054 ft | 460 kts | 176° |
| 2026-04-22 18:16 | 43.90085 | -0.16105 | 33046 ft | 460 kts | 176° |
| 2026-04-22 18:17 | 43.77372 | -0.13846 | 33055 ft | 460 kts | 176° |
| 2026-04-22 18:17 | 43.64669 | -0.11598 | 33044 ft | 460 kts | 176° |
| 2026-04-22 18:18 | 43.51952 | -0.09357 | 33069 ft | 461 kts | 176° |
| 2026-04-22 18:18 | 43.39214 | -0.07122 | 33097 ft | 461 kts | 176° |
| 2026-04-22 18:19 | 43.26954 | -0.04980 | 33101 ft | 462 kts | 176° |
| 2026-04-22 18:19 | 43.20568 | -0.03867 | 33100 ft | 462 kts | 176° |
| 2026-04-22 18:20 | 43.14176 | -0.02755 | 33103 ft | 461 kts | 176° |
| 2026-04-22 18:20 | 43.07908 | -0.01665 | 33087 ft | 454 kts | 176° |
| 2026-04-22 18:21 | 43.01654 | -0.00582 | 33052 ft | 454 kts | 176° |
| 2026-04-22 18:21 | 42.98509 | -0.00040 | 32680 ft | 453 kts | 176° |
| 2026-04-22 18:21 | 42.95405 | 0.00497 | 32264 ft | 448 kts | 176° |
| 2026-04-22 18:21 | 42.92332 | 0.01029 | 31870 ft | 443 kts | 176° |
| 2026-04-22 18:22 | 42.89283 | 0.01555 | 31428 ft | 440 kts | 176° |
| 2026-04-22 18:22 | 42.86259 | 0.02075 | 31025 ft | 436 kts | 176° |
| 2026-04-22 18:22 | 42.83250 | 0.02592 | 30602 ft | 434 kts | 176° |
| 2026-04-22 18:22 | 42.81265 | 0.02933 | 30326 ft | 432 kts | 176° |
| 2026-04-22 18:23 | 42.78290 | 0.03444 | 29877 ft | 430 kts | 176° |
| 2026-04-22 18:23 | 42.75332 | 0.03951 | 29396 ft | 426 kts | 175° |
| 2026-04-22 18:23 | 42.72408 | 0.04453 | 29006 ft | 421 kts | 176° |
| 2026-04-22 18:24 | 42.66632 | 0.05439 | 28121 ft | 414 kts | 175° |
| 2026-04-22 18:24 | 42.63785 | 0.05926 | 27700 ft | 411 kts | 175° |
| 2026-04-22 18:24 | 42.58147 | 0.06889 | 26866 ft | 405 kts | 175° |
| 2026-04-22 18:25 | 42.55360 | 0.07365 | 26458 ft | 402 kts | 175° |
| 2026-04-22 18:25 | 42.52590 | 0.07836 | 26056 ft | 399 kts | 175° |
| 2026-04-22 18:25 | 42.49841 | 0.08303 | 25640 ft | 398 kts | 175° |
| 2026-04-22 18:26 | 42.44375 | 0.09232 | 24838 ft | 393 kts | 175° |
| 2026-04-22 18:26 | 42.41673 | 0.09691 | 24438 ft | 391 kts | 175° |
| 2026-04-22 18:26 | 42.38980 | 0.10148 | 24045 ft | 389 kts | 175° |
| 2026-04-22 18:26 | 42.36305 | 0.10601 | 23637 ft | 387 kts | 175° |
| 2026-04-22 18:27 | 42.33635 | 0.11053 | 23171 ft | 385 kts | 175° |
| 2026-04-22 18:27 | 42.30985 | 0.11502 | 22741 ft | 382 kts | 175° |
| 2026-04-22 18:27 | 42.28393 | 0.11940 | 22332 ft | 379 kts | 175° |
| 2026-04-22 18:27 | 42.25784 | 0.12381 | 21924 ft | 375 kts | 175° |
| 2026-04-22 18:28 | 42.23199 | 0.12818 | 21539 ft | 372 kts | 175° |
| 2026-04-22 18:28 | 42.20637 | 0.13250 | 21145 ft | 370 kts | 175° |
| 2026-04-22 18:28 | 42.18098 | 0.13678 | 20758 ft | 367 kts | 175° |
| 2026-04-22 18:28 | 42.15577 | 0.14104 | 20383 ft | 364 kts | 175° |
| 2026-04-22 18:29 | 42.13068 | 0.14526 | 20002 ft | 362 kts | 176° |
| 2026-04-22 18:29 | 42.10577 | 0.14945 | 19624 ft | 359 kts | 176° |
| 2026-04-22 18:29 | 42.08101 | 0.15360 | 19247 ft | 357 kts | 176° |
| 2026-04-22 18:29 | 42.05693 | 0.16189 | 18843 ft | 361 kts | 156° |
| 2026-04-22 18:30 | 42.03567 | 0.17979 | 18523 ft | 360 kts | 147° |
| 2026-04-22 18:30 | 41.99548 | 0.21933 | 17680 ft | 353 kts | 146° |
| 2026-04-22 18:30 | 41.97593 | 0.23884 | 17295 ft | 347 kts | 146° |
| 2026-04-22 18:31 | 41.95667 | 0.25794 | 16928 ft | 341 kts | 147° |
| 2026-04-22 18:31 | 41.93797 | 0.27635 | 16575 ft | 335 kts | 147° |
| 2026-04-22 18:31 | 41.91925 | 0.29466 | 16229 ft | 331 kts | 147° |
| 2026-04-22 18:31 | 41.90064 | 0.31279 | 15897 ft | 330 kts | 147° |
| 2026-04-22 18:32 | 41.88208 | 0.33082 | 15550 ft | 329 kts | 147° |
| 2026-04-22 18:32 | 41.86361 | 0.34874 | 15211 ft | 328 kts | 147° |
| 2026-04-22 18:32 | 41.84512 | 0.36664 | 14866 ft | 327 kts | 147° |
| 2026-04-22 18:32 | 41.82674 | 0.38443 | 14532 ft | 326 kts | 147° |
| 2026-04-22 18:33 | 41.80841 | 0.40216 | 14189 ft | 325 kts | 148° |
| 2026-04-22 18:33 | 41.79007 | 0.41987 | 13850 ft | 324 kts | 148° |
| 2026-04-22 18:33 | 41.77180 | 0.43751 | 13480 ft | 323 kts | 148° |
| 2026-04-22 18:33 | 41.75359 | 0.45509 | 13103 ft | 322 kts | 148° |
| 2026-04-22 18:34 | 41.73541 | 0.47261 | 12755 ft | 321 kts | 148° |
| 2026-04-22 18:34 | 41.71747 | 0.48992 | 12396 ft | 316 kts | 148° |
| 2026-04-22 18:34 | 41.69979 | 0.50695 | 12058 ft | 311 kts | 148° |
| 2026-04-22 18:34 | 41.68235 | 0.52375 | 11731 ft | 308 kts | 148° |
| 2026-04-22 18:35 | 41.66492 | 0.54050 | 11397 ft | 309 kts | 148° |
| 2026-04-22 18:35 | 41.64739 | 0.55734 | 11083 ft | 313 kts | 148° |
| 2026-04-22 18:35 | 41.62946 | 0.57454 | 10743 ft | 321 kts | 148° |
| 2026-04-22 18:35 | 41.61129 | 0.59200 | 10422 ft | 319 kts | 147° |
| 2026-04-22 18:36 | 41.59383 | 0.60878 | 10280 ft | 307 kts | 148° |
| 2026-04-22 18:36 | 41.57678 | 0.62514 | 10132 ft | 296 kts | 148° |
| 2026-04-22 18:36 | 41.56028 | 0.64069 | 9994 ft | 284 kts | 153° |
| 2026-04-22 18:36 | 41.54244 | 0.64929 | 9833 ft | 268 kts | 176° |
| 2026-04-22 18:37 | 41.52395 | 0.65159 | 9685 ft | 270 kts | 180° |
| 2026-04-22 18:37 | 41.50485 | 0.65316 | 9520 ft | 279 kts | 180° |
| 2026-04-22 18:37 | 41.48531 | 0.65470 | 9333 ft | 281 kts | 180° |
| 2026-04-22 18:37 | 41.46590 | 0.65632 | 9147 ft | 277 kts | 180° |
| 2026-04-22 18:38 | 41.44673 | 0.65798 | 8958 ft | 274 kts | 179° |
| 2026-04-22 18:38 | 41.42786 | 0.65967 | 8786 ft | 270 kts | 179° |
| 2026-04-22 18:38 | 41.40922 | 0.66137 | 8617 ft | 267 kts | 179° |
| 2026-04-22 18:39 | 41.37246 | 0.66475 | 8274 ft | 266 kts | 179° |
| 2026-04-22 18:39 | 41.35406 | 0.66644 | 8129 ft | 264 kts | 179° |
| 2026-04-22 18:39 | 41.33548 | 0.66815 | 7957 ft | 264 kts | 179° |
| 2026-04-22 18:39 | 41.31712 | 0.66985 | 7794 ft | 264 kts | 179° |
| 2026-04-22 18:40 | 41.29873 | 0.67155 | 7632 ft | 265 kts | 179° |
| 2026-04-22 18:40 | 41.28056 | 0.67323 | 7464 ft | 265 kts | 179° |
| 2026-04-22 18:40 | 41.26246 | 0.67832 | 7268 ft | 271 kts | 156° |
| 2026-04-22 18:40 | 41.24785 | 0.69397 | 7114 ft | 270 kts | 133° |
| 2026-04-22 18:41 | 41.23596 | 0.71298 | 6955 ft | 265 kts | 131° |
| 2026-04-22 18:41 | 41.22444 | 0.73185 | 6786 ft | 260 kts | 131° |
| 2026-04-22 18:41 | 41.21312 | 0.75035 | 6596 ft | 255 kts | 131° |
| 2026-04-22 18:41 | 41.20210 | 0.76849 | 6467 ft | 251 kts | 132° |
| 2026-04-22 18:42 | 41.19113 | 0.78642 | 6368 ft | 247 kts | 133° |
| 2026-04-22 18:42 | 41.18009 | 0.80370 | 6401 ft | 244 kts | 133° |
| 2026-04-22 18:42 | 41.16915 | 0.82069 | 6416 ft | 241 kts | 133° |
| 2026-04-22 18:42 | 41.15813 | 0.83772 | 6241 ft | 244 kts | 134° |
| 2026-04-22 18:43 | 41.14724 | 0.85464 | 6037 ft | 236 kts | 134° |
| 2026-04-22 18:43 | 41.13680 | 0.87093 | 5848 ft | 227 kts | 134° |
| 2026-04-22 18:43 | 41.12680 | 0.88660 | 5648 ft | 220 kts | 134° |
| 2026-04-22 18:43 | 41.11697 | 0.90206 | 5369 ft | 218 kts | 133° |
| 2026-04-22 18:44 | 41.10730 | 0.91725 | 5084 ft | 213 kts | 133° |
| 2026-04-22 18:44 | 41.09776 | 0.93206 | 4764 ft | 210 kts | 134° |
| 2026-04-22 18:44 | 41.08973 | 0.94807 | 4484 ft | 207 kts | 114° |
| 2026-04-22 18:44 | 41.08822 | 0.96696 | 3903 ft | 219 kts | 83° |
| 2026-04-22 18:45 | 41.09318 | 0.98619 | 3406 ft | 223 kts | 70° |
| 2026-04-22 18:45 | 41.09931 | 1.00417 | 3249 ft | 205 kts | 69° |
| 2026-04-22 18:45 | 41.10457 | 1.02131 | 2863 ft | 194 kts | 72° |
| 2026-04-22 18:45 | 41.10905 | 1.03756 | 2550 ft | 182 kts | 72° |
| 2026-04-22 18:46 | 41.11341 | 1.05267 | 2314 ft | 167 kts | 70° |
| 2026-04-22 18:46 | 41.11763 | 1.06652 | 2035 ft | 164 kts | 71° |
| 2026-04-22 18:46 | 41.12168 | 1.08045 | 1809 ft | 155 kts | 72° |
| 2026-04-22 18:46 | 41.12559 | 1.09333 | 1555 ft | 142 kts | 70° |
| 2026-04-22 18:47 | 41.12910 | 1.10488 | 1253 ft | 131 kts | 71° |
| 2026-04-22 18:47 | 41.13232 | 1.11611 | 991 ft | 128 kts | 71° |
| 2026-04-22 18:47 | 41.13565 | 1.12713 | 751 ft | 132 kts | 70° |
| 2026-04-22 18:47 | 41.13888 | 1.13821 | 621 ft | 127 kts | 72° |
| 2026-04-22 18:48 | 41.14209 | 1.14907 | 388 ft | 127 kts | 71° |
| 2026-04-22 18:48 | 41.14526 | 1.15984 | 253 ft | 119 kts | 71° |
| 2026-04-22 18:48 | 41.14791 | 1.16893 | 240 ft | 90 kts | 69° |
| 2026-04-22 18:48 | 41.14952 | 1.17447 | 239 ft | 45 kts | 69° |
| 2026-04-22 18:49 | 41.15012 | 1.17589 | 241 ft | 7 kts | 34° |
| 2026-04-22 18:49 | 41.15044 | 1.17592 | 241 ft | 4 kts | 345° |
| 2026-04-22 18:49 | 41.15063 | 1.17582 | 240 ft | 3 kts | 337° |
| 2026-04-22 18:49 | 41.15093 | 1.17566 | 240 ft | 7 kts | 339° |
| 2026-04-22 18:50 | 41.15136 | 1.17532 | 240 ft | 7 kts | 314° |
| 2026-04-22 18:50 | 41.15140 | 1.17470 | 240 ft | 7 kts | 241° |
| 2026-04-22 18:50 | 41.15115 | 1.17398 | 240 ft | 11 kts | 247° |
| 2026-04-22 18:50 | 41.15081 | 1.17283 | 240 ft | 16 kts | 248° |
| 2026-04-22 18:51 | 41.15044 | 1.17138 | 240 ft | 17 kts | 254° |
| 2026-04-22 18:51 | 41.14999 | 1.16999 | 239 ft | 16 kts | 247° |
| 2026-04-22 18:51 | 41.14958 | 1.16871 | 239 ft | 14 kts | 248° |
| 2026-04-22 18:51 | 41.14927 | 1.16756 | 239 ft | 13 kts | 248° |
| 2026-04-22 18:52 | 41.14894 | 1.16648 | 239 ft | 13 kts | 249° |
| 2026-04-22 18:52 | 41.14864 | 1.16539 | 239 ft | 12 kts | 250° |
| 2026-04-22 18:52 | 41.14833 | 1.16434 | 239 ft | 12 kts | 248° |
| 2026-04-22 18:52 | 41.14804 | 1.16332 | 239 ft | 12 kts | 249° |
| 2026-04-22 18:53 | 41.14775 | 1.16235 | 239 ft | 11 kts | 249° |
| 2026-04-22 18:53 | 41.14749 | 1.16145 | 239 ft | 10 kts | 249° |
| 2026-04-22 18:53 | 41.14725 | 1.16063 | 238 ft | 9 kts | 248° |
| 2026-04-22 18:53 | 41.14705 | 1.15998 | 238 ft | 7 kts | 248° |
| 2026-04-22 18:54 | 41.14689 | 1.15940 | 238 ft | 7 kts | 250° |
| 2026-04-22 18:54 | 41.14672 | 1.15879 | 238 ft | 8 kts | 254° |
| 2026-04-22 18:54 | 41.14689 | 1.15824 | 238 ft | 7 kts | 330° |
| 2026-04-22 18:54 | 41.14726 | 1.15805 | 238 ft | 4 kts | 340° |
| 2026-04-22 18:55 | 41.14737 | 1.15800 | 238 ft | 0 kts | 341° |